Pocatello, ID (83205)

10:24 PM MST on February 13, 2016 (GMT -0700)
plateau dr | | Change Station
CLOSE
Current Station
Personal Weather Station
Location: Pocatello, ID
Elevation: 4682 ft
Nearby Weather Stations

Elev 4682 ft 42.86 °N, 112.47 °W | Updated 13 minutes ago

Mostly Cloudy
Mostly Cloudy
32.2 °F
Feels Like 29 °F
N
3.7
Wind Variable Wind from East

Today
High -- | Low -- °F
--% Chance of Precip.
Yesterday
High -- | Low -- °F
Precip. -- in
Pressure 30.29 in
Visibility 10.0 miles
Clouds Clear
Windchill 29 °F
Dew Point 28 °F
Humidity 83%
Rainfall 0.00 in
Snow Depth Not available.
7:30 AM 5:58 PM
Waxing Crescent, 38% visible
METAR KPIH 140453Z 20008KT 10SM CLR 03/M02 A3027 RMK AO2 SLP257 T00281017
Pressure 30.29 in
Visibility 10.0 miles
Clouds Clear
Windchill 29 °F
Dew Point 28 °F
Humidity 83%
Rainfall 0.00 in
Snow Depth Not available.
7:30 AM 5:58 PM
Waxing Crescent, 38% visible
METAR KPIH 140453Z 20008KT 10SM CLR 03/M02 A3027 RMK AO2 SLP257 T00281017

10-Day Weather Forecast

Almanac

Astronomy

Feb. 13, 2016 Rise Set
Actual Time
Civil Twilight
Nautical Twilight
Astronomical Twilight
Moon
Length of Visible Light
Length of Day
Tomorrow will be .
, % of the Moon is Illuminated

Today's Extremes

State Highs State Lows

Community

WunderPhotos

Upload Photos

1,892,748 photos uploaded!

WunderBlog® & News

Nearby

Air Quality

  Air Quality AQ Index Pollutant
Not available.

Snow Depth

Station Depth Elevation

Earthquake Activity

City Distance Mag. Time & Date
Minimum magnitude displayed is 2.5.

Coastal Water Temperatures

Place Temperature

Stations

Nearby Weather Stations

Station Location Temp. Windchill Dew Point Humidity Wind Precip. Elev Updated Type
                   

Watches & Warnings

There are currently no watches in effect.